Time;durP1;ratioP1;P1;durP2;ratioP2;P2;SDS_P1;SDS_P2;PMS_P1;PMS_P2;Temp;Humidity;BMP_temperature;BMP_pressure;BME280_temperature;BME280_humidity;BME280_pressure;Samples;Min_cycle;Max_cycle;Signal;HPM_P1;HPM_P2
2023/01/10 00:00:33;;;;;;;16.77;3.05;;;;;;;2.26;100.00;101130.31;5048518;28;20044;-89
2023/01/10 00:02:59;;;;;;;20.35;3.45;;;;;;;2.22;100.00;101136.97;5045541;28;20013;-89
2023/01/10 00:05:24;;;;;;;19.48;3.20;;;;;;;2.16;100.00;101140.44;5052270;28;20036;-89
2023/01/10 00:07:49;;;;;;;19.53;3.70;;;;;;;2.20;100.00;101146.13;5045676;28;20036;-92
2023/01/10 00:10:16;;;;;;;26.37;3.70;;;;;;;2.18;100.00;101153.44;5031677;28;20079;-92
2023/01/10 00:15:25;;;;;;;13.45;4.22;;;;;;;2.17;100.00;101142.06;5031736;28;20044;-91
2023/01/10 00:17:50;;;;;;;24.67;3.87;;;;;;;2.25;100.00;101156.94;5032421;28;20017;-92
2023/01/10 00:20:16;;;;;;;24.53;4.23;;;;;;;2.11;100.00;101125.13;5032807;28;20061;-91
2023/01/10 00:22:41;;;;;;;18.83;3.83;;;;;;;2.38;100.00;101164.13;5031134;28;20547;-91
2023/01/10 00:25:07;;;;;;;24.47;4.47;;;;;;;2.42;100.00;101171.50;5033446;28;20822;-91
2023/01/10 00:27:34;;;;;;;25.87;4.60;;;;;;;2.39;100.00;101186.91;5032076;28;20057;-91
2023/01/10 00:30:06;;;;;;;20.48;4.07;;;;;;;2.14;100.00;101158.31;5030146;28;20437;-90
2023/01/10 00:32:33;;;;;;;16.23;3.50;;;;;;;1.95;100.00;101147.41;5030407;28;20053;-91
2023/01/10 00:34:58;;;;;;;28.25;3.97;;;;;;;2.29;100.00;101195.19;5030452;28;20072;-91
2023/01/10 00:37:24;;;;;;;19.00;3.83;;;;;;;2.34;100.00;101210.50;5032335;28;20022;-91
2023/01/10 00:39:49;;;;;;;19.27;3.73;;;;;;;2.32;100.00;101213.31;5033147;28;20410;-92
2023/01/10 00:45:00;;;;;;;23.15;4.07;;;;;;;1.91;100.00;101169.94;5032501;28;20056;-91
2023/01/10 00:57:32;;;;;;;19.25;3.50;;;;;;;1.88;100.00;101196.72;5021055;28;20104;-92
2023/01/10 00:59:57;;;;;;;28.83;3.73;;;;;;;1.94;100.00;101206.56;5032401;28;20488;-91
2023/01/10 01:02:23;;;;;;;16.40;3.70;;;;;;;2.01;100.00;101219.03;5032967;28;20449;-91
2023/01/10 01:04:48;;;;;;;27.87;4.43;;;;;;;1.85;100.00;101189.19;5032564;28;20500;-91
2023/01/10 01:07:13;;;;;;;27.70;4.68;;;;;;;2.19;100.00;101229.91;5030598;28;20028;-91
2023/01/10 01:10:25;;;;;;;31.27;4.20;;;;;;;2.26;100.00;101240.56;5032304;28;20029;-92
2023/01/10 01:12:24;;;;;;;25.60;4.40;;;;;;;2.15;100.00;101196.13;5032344;28;20400;-92
2023/01/10 01:14:50;;;;;;;23.80;4.27;;;;;;;2.16;100.00;101195.94;5031561;28;20025;-91
2023/01/10 01:17:22;;;;;;;27.05;4.45;;;;;;;2.48;100.00;101251.91;5031460;28;20036;-91
2023/01/10 01:19:47;;;;;;;24.43;4.10;;;;;;;2.34;100.00;101237.75;5031373;28;20040;-92
2023/01/10 01:22:13;;;;;;;25.40;3.85;;;;;;;2.14;100.00;101207.72;5032372;28;20663;-91
2023/01/10 01:24:40;;;;;;;26.73;3.70;;;;;;;2.41;100.00;101264.25;5033500;28;20025;-91
2023/01/10 01:27:05;;;;;;;22.47;4.67;;;;;;;2.32;100.00;101253.00;5034931;23;20350;-91
2023/01/10 01:29:37;;;;;;;29.67;4.80;;;;;;;2.16;100.00;101246.19;5024946;28;20030;-92
2023/01/10 01:32:04;;;;;;;33.10;6.60;;;;;;;2.03;100.00;101238.13;5021522;28;20022;-92
2023/01/10 01:34:29;;;;;;;28.70;7.20;;;;;;;2.18;100.00;101256.56;5026689;28;20053;-92
2023/01/10 01:36:57;;;;;;;30.53;7.93;;;;;;;2.15;100.00;101235.78;5017467;28;20293;-92
2023/01/10 01:39:23;;;;;;;32.90;8.85;;;;;;;2.05;100.00;101231.66;5010985;28;20528;-92
2023/01/10 01:41:57;;;;;;;28.92;7.72;;;;;;;2.13;100.00;101259.78;4996570;28;20053;-91
2023/01/10 01:44:41;;;;;;;35.03;8.63;;;;;;;2.26;100.00;101275.75;5010149;28;20040;-92
2023/01/10 01:47:31;;;;;;;36.95;7.55;;;;;;;2.39;100.00;101292.72;4999634;28;20030;-91
2023/01/10 01:50:00;;;;;;;31.05;7.32;;;;;;;2.52;100.00;101287.56;5003902;28;20126;-91
2023/01/10 01:52:34;;;;;;;33.50;8.40;;;;;;;2.35;100.00;101244.69;5005971;28;20033;-91
2023/01/10 01:55:04;;;;;;;38.13;7.93;;;;;;;2.56;100.00;101264.16;5012980;28;20440;-91
2023/01/10 01:57:33;;;;;;;37.58;7.70;;;;;;;2.86;100.00;101291.22;5007048;28;20045;-91
2023/01/10 02:00:01;;;;;;;29.17;6.53;;;;;;;2.83;100.00;101298.75;5016224;28;20424;-92
2023/01/10 02:02:37;;;;;;;24.90;5.80;;;;;;;2.53;100.00;101253.97;5013972;28;20037;-91
2023/01/10 02:05:07;;;;;;;29.33;6.07;;;;;;;2.76;100.00;101296.03;5018125;28;20795;-91
2023/01/10 02:07:51;;;;;;;22.42;5.10;;;;;;;2.63;100.00;101274.78;5011372;28;20026;-91
2023/01/10 02:10:39;;;;;;;25.58;4.85;;;;;;;2.86;100.00;101306.28;5011506;28;20026;-91
2023/01/10 02:13:07;;;;;;;23.35;4.93;;;;;;;2.89;100.00;101311.19;4966736;28;20037;-91
2023/01/10 02:15:33;;;;;;;26.88;5.22;;;;;;;2.55;100.00;101252.78;5008405;28;20025;-91
2023/01/10 02:18:00;;;;;;;31.00;5.18;;;;;;;2.98;100.00;101319.78;5011237;28;20432;-90
2023/01/10 02:20:42;;;;;;;25.40;4.90;;;;;;;2.63;100.00;101269.50;5010095;28;20493;-93
2023/01/10 02:23:19;;;;;;;28.00;4.10;;;;;;;2.95;100.00;101318.38;5006395;28;20033;-92
2023/01/10 02:26:12;;;;;;;20.52;4.85;;;;;;;2.97;100.00;101320.81;5009927;28;20034;-90
2023/01/10 02:29:12;;;;;;;22.27;4.35;;;;;;;2.94;100.00;101311.44;5002857;28;20034;-91
2023/01/10 02:32:19;;;;;;;28.73;4.45;;;;;;;2.90;100.00;101315.47;5006764;28;20027;-91
2023/01/10 02:35:07;;;;;;;26.52;4.45;;;;;;;2.82;100.00;101323.59;5004147;28;20041;-90
2023/01/10 02:38:01;;;;;;;22.77;3.80;;;;;;;2.70;100.00;101318.81;5009248;28;20025;-91
2023/01/10 02:40:41;;;;;;;25.45;3.78;;;;;;;2.71;100.00;101319.63;5015651;28;20037;-92
2023/01/10 02:43:17;;;;;;;26.45;4.05;;;;;;;2.39;100.00;101267.09;5031346;28;20129;-91
2023/01/10 02:45:42;;;;;;;19.85;3.28;;;;;;;2.66;100.00;101308.81;5017189;28;20086;-91
2023/01/10 02:48:08;;;;;;;29.80;4.13;;;;;;;2.56;100.00;101294.06;5045248;28;20025;-91
2023/01/10 02:50:56;;;;;;;32.07;3.77;;;;;;;2.63;100.00;101290.66;5033876;28;20325;-91
2023/01/10 02:53:32;;;;;;;27.90;3.90;;;;;;;2.69;100.00;101313.72;5024042;28;20289;-92
2023/01/10 02:57:00;;;;;;;28.27;4.30;;;;;;;2.68;100.00;101330.59;5012710;28;20527;-91
2023/01/10 02:59:37;;;;;;;20.13;3.20;;;;;;;2.54;100.00;101341.09;4931183;29;20138;-92
2023/01/10 03:02:02;;;;;;;25.60;3.17;;;;;;;2.53;100.00;101339.47;4936558;29;20036;-92
2023/01/10 03:04:33;;;;;;;26.03;3.43;;;;;;;2.41;100.00;101331.22;4984464;28;20030;-92
2023/01/10 03:07:19;;;;;;;25.10;3.55;;;;;;;2.37;100.00;101340.53;5007336;28;20034;-91
2023/01/10 03:10:09;;;;;;;23.08;3.20;;;;;;;2.32;100.00;101355.34;5029933;28;20037;-92
2023/01/10 03:12:49;;;;;;;22.73;3.03;;;;;;;2.09;100.00;101324.63;5018795;28;20022;-92
2023/01/10 03:15:18;;;;;;;20.33;3.47;;;;;;;2.21;100.00;101357.47;5013301;28;20323;-91
2023/01/10 03:17:49;;;;;;;25.85;3.80;;;;;;;2.24;100.00;101365.03;5022132;28;20053;-92
2023/01/10 03:20:19;;;;;;;25.45;3.17;;;;;;;1.87;100.00;101313.22;5049495;28;20017;-91
2023/01/10 03:22:46;;;;;;;25.92;3.50;;;;;;;2.08;100.00;101346.78;5029252;28;20068;-91
2023/01/10 03:25:15;;;;;;;21.38;3.40;;;;;;;2.32;100.00;101382.59;5021936;28;20478;-91
2023/01/10 03:28:04;;;;;;;27.33;4.13;;;;;;;2.41;100.00;101392.06;5017013;28;20049;-92
2023/01/10 03:30:51;;;;;;;19.70;3.40;;;;;;;2.43;100.00;101370.69;5011557;28;20109;-92
2023/01/10 03:33:22;;;;;;;27.60;3.90;;;;;;;2.63;100.00;101383.28;5012949;28;20296;-91
2023/01/10 03:36:00;;;;;;;27.35;3.67;;;;;;;2.71;100.00;101394.56;5010999;28;20034;-92
2023/01/10 03:38:40;;;;;;;22.58;3.38;;;;;;;2.76;100.00;101388.66;5008443;28;20440;-92
2023/01/10 03:41:09;;;;;;;23.13;3.47;;;;;;;2.67;100.00;101377.41;5009033;28;20072;-91
2023/01/10 03:47:03;;;;;;;25.45;4.10;;;;;;;2.82;100.00;101398.50;5006625;28;20072;-89
2023/01/10 03:49:32;;;;;;;27.67;3.20;;;;;;;2.83;100.00;101407.28;4998062;28;20052;-89
2023/01/10 03:51:58;;;;;;;22.27;3.75;;;;;;;2.50;100.00;101358.34;5008836;28;20022;-89
2023/01/10 03:54:24;;;;;;;28.92;3.70;;;;;;;2.45;100.00;101359.94;5002961;28;20486;-89
2023/01/10 03:56:50;;;;;;;19.13;2.90;;;;;;;2.54;100.00;101380.78;5004093;28;20036;-89
2023/01/10 03:59:25;;;;;;;24.03;3.10;;;;;;;2.84;100.00;101430.06;5007899;28;20099;-89
2023/01/10 04:01:51;;;;;;;19.63;3.10;;;;;;;2.57;100.00;101393.59;5006569;28;20342;-89
2023/01/10 04:04:17;;;;;;;31.70;3.58;;;;;;;2.68;100.00;101408.16;5004738;28;20065;-89
2023/01/10 04:06:42;;;;;;;26.23;3.27;;;;;;;2.87;100.00;101433.16;4994759;28;20018;-89
2023/01/10 04:20:56;;;;;;;28.08;3.15;;;;;;;2.36;100.00;101397.09;5727642;22;20060;-88
2023/01/10 04:23:22;;;;;;;36.53;3.20;;;;;;;2.31;100.00;101394.19;5030313;28;20049;-88
2023/01/10 04:25:47;;;;;;;21.00;3.00;;;;;;;2.57;100.00;101451.81;5030602;28;20056;-88
2023/01/10 04:28:13;;;;;;;27.83;3.10;;;;;;;2.50;100.00;101460.72;5008277;28;20478;-88
2023/01/10 04:30:38;;;;;;;26.77;3.23;;;;;;;2.31;100.00;101435.69;5010340;28;20030;-88
2023/01/10 04:33:03;;;;;;;30.73;3.03;;;;;;;2.20;100.00;101427.22;5009587;28;20449;-88
2023/01/10 04:35:29;;;;;;;27.52;2.92;;;;;;;2.39;100.00;101468.13;5007553;28;20075;-88
2023/01/10 04:37:54;;;;;;;25.80;2.50;;;;;;;2.01;100.00;101404.06;5009097;28;20469;-89
2023/01/10 04:40:22;;;;;;;25.57;2.90;;;;;;;2.06;100.00;101407.78;5010457;28;20105;-88
2023/01/10 04:42:47;;;;;;;31.60;3.58;;;;;;;2.32;100.00;101448.72;5011747;28;20037;-88
2023/01/10 04:45:19;;;;;;;23.07;2.87;;;;;;;2.26;100.00;101439.72;5014818;28;20499;-88
2023/01/10 04:47:49;;;;;;;15.80;2.47;;;;;;;2.27;100.00;101444.00;5016745;28;20425;-89
2023/01/10 04:50:15;;;;;;;23.75;2.65;;;;;;;1.99;100.00;101408.72;5013181;28;20022;-88
2023/01/10 04:52:42;;;;;;;34.60;2.80;;;;;;;2.23;100.00;101449.88;5011228;28;20365;-88
2023/01/10 04:55:08;;;;;;;34.40;3.10;;;;;;;2.17;100.00;101453.25;5024765;28;20040;-88
2023/01/10 04:57:33;;;;;;;30.60;3.45;;;;;;;1.95;100.00;101427.59;5024953;28;20021;-88
2023/01/10 04:59:59;;;;;;;31.10;3.63;;;;;;;2.00;100.00;101434.16;5009731;28;20511;-88
2023/01/10 05:02:24;;;;;;;23.97;3.17;;;;;;;2.22;100.00;101464.09;5009204;28;20049;-88
2023/01/10 05:04:49;;;;;;;26.87;2.70;;;;;;;2.24;100.00;101470.00;5009401;28;20329;-88
2023/01/10 05:07:16;;;;;;;35.70;3.97;;;;;;;2.23;100.00;101455.16;5014896;28;20026;-90
2023/01/10 05:09:41;;;;;;;26.63;2.88;;;;;;;2.25;100.00;101453.94;5018895;28;20022;-90
2023/01/10 05:12:07;;;;;;;35.90;3.63;;;;;;;1.98;100.00;101412.38;5014564;28;20447;-89
2023/01/10 05:14:36;;;;;;;30.00;3.35;;;;;;;2.28;100.00;101468.63;5020335;28;20367;-88
2023/01/10 05:17:01;;;;;;;26.48;3.15;;;;;;;2.25;100.00;101472.47;5026022;28;20029;-88
2023/01/10 05:19:26;;;;;;;27.97;2.90;;;;;;;2.32;100.00;101496.34;5016359;28;20517;-87
2023/01/10 05:21:52;;;;;;;27.90;3.20;;;;;;;2.38;100.00;101497.41;5027680;28;20120;-88
2023/01/10 05:24:17;;;;;;;27.50;3.53;;;;;;;2.19;100.00;101464.47;5036568;28;20021;-87
2023/01/10 05:26:42;;;;;;;40.03;3.33;;;;;;;2.49;100.00;101518.09;5032819;28;20026;-87
2023/01/10 05:29:11;;;;;;;34.33;3.77;;;;;;;2.33;100.00;101481.31;5038460;28;20288;-88
2023/01/10 05:31:36;;;;;;;38.72;3.22;;;;;;;2.58;100.00;101513.53;5026941;28;20087;-87
2023/01/10 05:34:02;;;;;;;26.73;3.17;;;;;;;2.42;100.00;101488.94;5032912;28;20049;-88
2023/01/10 05:36:27;;;;;;;34.63;3.03;;;;;;;2.54;100.00;101499.00;5028717;28;20049;-88
2023/01/10 05:38:52;;;;;;;36.77;4.43;;;;;;;2.62;100.00;101498.06;5036583;28;20064;-87
2023/01/10 05:41:18;;;;;;;35.20;3.00;;;;;;;2.62;100.00;101493.63;5029185;28;20557;-88
2023/01/10 05:43:43;;;;;;;31.73;3.58;;;;;;;2.72;100.00;101522.41;5029126;28;20087;-88
2023/01/10 05:46:09;;;;;;;31.77;3.50;;;;;;;2.57;100.00;101509.22;5031661;28;20641;-88
2023/01/10 05:48:34;;;;;;;25.57;2.97;;;;;;;2.40;100.00;101504.16;5013964;28;20033;-88
2023/01/10 05:51:00;;;;;;;37.95;3.65;;;;;;;2.64;100.00;101535.75;5016886;28;20179;-88
2023/01/10 05:53:25;;;;;;;39.50;4.47;;;;;;;2.46;100.00;101496.50;5034390;28;20120;-88
2023/01/10 05:55:57;;;;;;;37.23;3.47;;;;;;;2.83;100.00;101535.16;5021537;28;20033;-88
2023/01/10 05:58:23;;;;;;;35.17;3.70;;;;;;;2.85;100.00;101533.13;5014009;28;20034;-88
2023/01/10 06:00:49;;;;;;;37.00;3.13;;;;;;;2.92;100.00;101543.78;5012993;28;20481;-88
2023/01/10 06:03:14;;;;;;;31.40;3.00;;;;;;;3.02;100.00;101544.28;5025422;28;20136;-89
2023/01/10 06:05:40;;;;;;;26.77;2.77;;;;;;;2.80;100.00;101513.53;5020617;28;20022;-87
2023/01/10 06:08:05;;;;;;;39.00;3.20;;;;;;;2.93;100.00;101524.25;5015121;28;20381;-92
2023/01/10 06:10:30;;;;;;;25.05;3.50;;;;;;;3.13;100.00;101556.19;5017392;28;20788;-87
2023/01/10 06:12:56;;;;;;;36.57;3.17;;;;;;;3.12;100.00;101549.25;5019757;28;20064;-88
2023/01/10 06:15:21;;;;;;;34.33;3.20;;;;;;;3.04;100.00;101538.81;5012927;28;20156;-90
2023/01/10 06:17:46;;;;;;;32.67;3.43;;;;;;;3.10;100.00;101543.34;5013367;28;20022;-91
2023/01/10 06:20:12;;;;;;;32.87;3.30;;;;;;;3.09;100.00;101549.66;5015661;28;20029;-91
2023/01/10 06:22:42;;;;;;;34.58;3.40;;;;;;;3.04;100.00;101546.75;5013599;28;20041;-89
2023/01/10 06:25:09;;;;;;;23.08;3.33;;;;;;;2.93;100.00;101542.78;5014202;28;20025;-89
2023/01/10 06:27:34;;;;;;;29.20;3.08;;;;;;;2.87;100.00;101536.41;5010998;28;20033;-90
2023/01/10 06:30:16;;;;;;;34.57;3.43;;;;;;;2.81;100.00;101531.88;5014028;28;20378;-89
2023/01/10 06:32:41;;;;;;;33.30;3.42;;;;;;;2.94;100.00;101554.16;5013175;28;20022;-89
2023/01/10 06:35:07;;;;;;;32.27;2.70;;;;;;;2.86;100.00;101540.06;5013440;28;20105;-89
2023/01/10 06:37:32;;;;;;;37.27;3.77;;;;;;;2.69;100.00;101513.00;5011816;28;20026;-89
2023/01/10 06:39:58;;;;;;;26.98;3.38;;;;;;;2.77;100.00;101535.88;5012657;28;20544;-89
2023/01/10 06:42:24;;;;;;;34.07;3.53;;;;;;;2.73;100.00;101527.50;5012696;28;20105;-89
2023/01/10 06:44:49;;;;;;;31.33;3.28;;;;;;;2.73;100.00;101529.34;5013265;28;20017;-91
2023/01/10 06:47:16;;;;;;;30.07;2.60;;;;;;;2.69;100.00;101541.31;5018682;28;20108;-90
2023/01/10 06:49:41;;;;;;;28.58;2.92;;;;;;;2.58;100.00;101543.44;5034636;28;20030;-90
2023/01/10 06:52:07;;;;;;;24.53;3.30;;;;;;;2.78;100.00;101589.66;5034023;28;20036;-89
2023/01/10 06:54:32;;;;;;;23.57;2.70;;;;;;;2.34;100.00;101544.59;5034647;28;20036;-89
2023/01/10 06:56:58;;;;;;;35.63;3.40;;;;;;;2.57;100.00;101588.63;5014179;28;20022;-90
2023/01/10 06:59:23;;;;;;;29.30;3.00;;;;;;;2.14;100.00;101541.69;5013076;28;20021;-90
2023/01/10 07:01:48;;;;;;;33.53;3.57;;;;;;;2.35;100.00;101579.81;5030257;28;20712;-90
2023/01/10 07:04:14;;;;;;;28.93;3.00;;;;;;;2.38;100.00;101608.50;5020051;28;20021;-90
2023/01/10 07:06:40;;;;;;;28.77;3.27;;;;;;;2.17;100.00;101581.00;5025479;28;20468;-90
2023/01/10 07:09:07;;;;;;;33.10;3.05;;;;;;;2.24;100.00;101602.25;5011631;28;20025;-87
2023/01/10 07:11:34;;;;;;;38.42;3.28;;;;;;;2.15;100.00;101614.75;5012724;28;20535;-87
2023/01/10 07:14:00;;;;;;;30.70;2.85;;;;;;;2.21;100.00;101621.13;5021538;28;20032;-88
2023/01/10 07:16:26;;;;;;;27.80;2.70;;;;;;;2.07;100.00;101609.53;5019431;28;20018;-89
2023/01/10 07:18:51;;;;;;;37.28;4.10;;;;;;;2.15;100.00;101627.97;5025359;28;20040;-89
2023/01/10 07:21:18;;;;;;;38.43;3.23;;;;;;;2.25;100.00;101638.28;5024896;28;20030;-96
2023/01/10 07:23:47;;;;;;;28.45;3.08;;;;;;;2.20;100.00;101635.34;5032227;28;20037;-96
2023/01/10 07:26:16;;;;;;;28.15;2.63;;;;;;;2.27;100.00;101642.38;5014409;28;20721;-95
2023/01/10 07:29:02;;;;;;;30.33;2.78;;;;;;;1.98;100.00;101597.41;5001925;28;20037;-95
2023/01/10 07:50:13;;;;;;;34.27;3.17;;;;;;;2.37;100.00;101630.69;3965033;22;20385;-91
2023/01/10 07:52:39;;;;;;;27.30;3.03;;;;;;;2.54;100.00;101658.59;5073237;28;20491;-91
2023/01/10 07:55:05;;;;;;;23.50;3.40;;;;;;;2.64;100.00;101711.25;5058427;28;20052;-92
2023/01/10 07:57:30;;;;;;;35.93;4.13;;;;;;;2.44;100.00;101663.34;5061578;28;20039;-92
2023/01/10 07:59:55;;;;;;;32.05;3.10;;;;;;;2.48;100.00;101664.63;5074030;28;20021;-91
2023/01/10 08:02:22;;;;;;;26.30;3.23;;;;;;;2.52;100.00;101663.25;5084333;28;20071;-92
2023/01/10 08:05:17;;;;;;;29.27;2.83;;;;;;;2.82;100.00;101691.53;5085394;28;20763;-91
2023/01/10 08:07:43;;;;;;;32.88;3.67;;;;;;;2.76;100.00;101684.31;5076935;28;20073;-92
2023/01/10 08:10:09;;;;;;;28.83;3.27;;;;;;;2.78;100.00;101687.59;5077378;28;20013;-90
2023/01/10 08:12:34;;;;;;;18.05;2.28;;;;;;;2.75;100.00;101690.63;5094219;28;20017;-92
2023/01/10 08:14:59;;;;;;;30.47;4.00;;;;;;;2.62;100.00;101676.22;5078047;28;20386;-91
2023/01/10 08:17:25;;;;;;;34.03;3.53;;;;;;;2.69;100.00;101689.53;5072622;28;20028;-91
2023/01/10 08:19:52;;;;;;;32.43;3.53;;;;;;;2.58;100.00;101678.38;5061393;28;20044;-92
2023/01/10 08:22:18;;;;;;;33.50;2.90;;;;;;;2.55;100.00;101677.94;5049404;28;20123;-91
2023/01/10 08:24:44;;;;;;;21.23;2.50;;;;;;;2.63;100.00;101692.91;5069378;28;20442;-92
2023/01/10 08:27:09;;;;;;;22.13;2.77;;;;;;;2.61;100.00;101685.16;5052187;28;20119;-91
2023/01/10 08:29:34;;;;;;;31.17;3.93;;;;;;;2.63;100.00;101687.59;5051020;28;20040;-91
2023/01/10 08:32:00;;;;;;;29.57;3.57;;;;;;;2.66;100.00;101698.63;5062622;28;20322;-91
2023/01/10 08:34:25;;;;;;;21.80;2.50;;;;;;;2.63;100.00;101685.78;5066906;28;20090;-90
2023/01/10 08:36:52;;;;;;;37.20;3.47;;;;;;;2.79;100.00;101708.59;5078680;28;20016;-92
2023/01/10 08:39:21;;;;;;;28.13;3.38;;;;;;;2.81;100.00;101706.56;5079235;28;20035;-93
2023/01/10 08:41:46;;;;;;;30.90;2.80;;;;;;;2.76;100.00;101689.63;5090491;28;20032;-93
2023/01/10 08:44:14;;;;;;;39.60;3.50;;;;;;;2.86;100.00;101693.63;5074905;28;20029;-92
2023/01/10 08:46:39;;;;;;;20.10;2.67;;;;;;;2.98;100.00;101695.78;5075600;28;20035;-93
2023/01/10 08:49:05;;;;;;;29.70;2.75;;;;;;;3.00;100.00;101688.47;5075255;28;20021;-94
2023/01/10 08:51:30;;;;;;;21.90;2.93;;;;;;;2.97;100.00;101678.25;5072893;28;20075;-92
2023/01/10 08:53:55;;;;;;;25.73;2.83;;;;;;;3.12;100.00;101697.56;5075724;28;20147;-93
2023/01/10 08:56:21;;;;;;;26.60;3.37;;;;;;;3.03;100.00;101673.03;5121173;22;20527;-94
2023/01/10 08:58:49;;;;;;;18.25;2.30;;;;;;;2.80;100.00;101628.16;5082929;28;20111;-96
2023/01/10 09:01:16;;;;;;;28.05;2.80;;;;;;;2.93;100.00;101643.38;5069222;28;20532;-94
2023/01/10 09:03:41;;;;;;;19.47;2.77;;;;;;;3.10;100.00;101656.41;5063444;28;20052;-95
2023/01/10 09:06:07;;;;;;;22.43;3.30;;;;;;;3.28;100.00;101693.88;5081863;28;20317;-94
2023/01/10 09:08:44;;;;;;;26.02;2.38;;;;;;;3.16;100.00;101661.75;5064251;28;20025;-94
2023/01/10 09:11:13;;;;;;;26.53;2.87;;;;;;;3.15;100.00;101657.47;5059742;28;20111;-95
2023/01/10 09:13:39;;;;;;;29.23;3.07;;;;;;;3.18;100.00;101649.16;5055625;28;20635;-95
2023/01/10 09:16:07;;;;;;;23.23;2.63;;;;;;;3.45;100.00;101675.94;5034789;28;20029;-95
2023/01/10 09:18:35;;;;;;;28.58;3.22;;;;;;;3.37;100.00;101652.19;5018268;28;20036;-95
2023/01/10 09:21:02;;;;;;;17.05;2.60;;;;;;;3.46;100.00;101677.56;5037241;28;20032;-96
2023/01/10 09:23:28;;;;;;;26.83;3.25;;;;;;;3.25;100.00;101637.81;5065574;28;20028;-94
2023/01/10 09:26:02;;;;;;;23.00;3.40;;;;;;;3.31;100.00;101637.03;5038142;28;20051;-95
2023/01/10 09:28:28;;;;;;;25.57;3.47;;;;;;;3.28;100.00;101621.53;5039344;28;20296;-94
2023/01/10 09:30:56;;;;;;;29.45;2.78;;;;;;;3.44;100.00;101653.09;5056174;28;20438;-94
2023/01/10 09:33:24;;;;;;;27.70;2.60;;;;;;;3.28;100.00;101626.84;5047773;28;20056;-96
2023/01/10 09:36:00;;;;;;;25.80;3.30;;;;;;;3.36;100.00;101626.69;5039470;28;20112;-95
2023/01/10 09:38:26;;;;;;;21.53;2.60;;;;;;;3.49;100.00;101655.16;5056875;28;20279;-95
2023/01/10 09:41:37;;;;;;;18.80;2.92;;;;;;;3.72;100.00;101685.94;5038995;28;20171;-95
2023/01/10 09:44:54;;;;;;;26.00;3.08;;;;;;;3.76;100.00;101684.53;5057462;28;20029;-95
2023/01/10 09:50:46;;;;;;;20.97;2.67;;;;;;;3.58;100.00;101639.94;5044744;28;20041;-96
2023/01/10 09:53:18;;;;;;;18.13;2.37;;;;;;;3.79;100.00;101655.81;5057005;28;20654;-96
2023/01/10 09:55:49;;;;;;;24.50;2.80;;;;;;;3.76;100.00;101648.25;5070447;28;20045;-95
2023/01/10 09:58:42;;;;;;;21.65;2.67;;;;;;;3.68;100.00;101627.16;5068226;28;20697;-94
2023/01/10 10:01:27;;;;;;;18.90;2.25;;;;;;;4.11;100.00;101678.47;5066311;28;20037;-95
2023/01/10 10:04:08;;;;;;;22.33;2.72;;;;;;;3.79;100.00;101618.72;5068325;28;20037;-95
2023/01/10 10:06:45;;;;;;;;;;;;;;;;;;;;;
2023/01/10 10:09:16;;;;;;;20.47;2.80;;;;;;;3.95;100.00;101643.28;5063629;28;20068;-96
2023/01/10 10:11:43;;;;;;;33.67;4.23;;;;;;;4.30;100.00;101693.72;5065590;28;20325;-96
2023/01/10 10:15:06;;;;;;;20.38;3.20;;;;;;;4.34;100.00;101687.00;5060420;28;20029;-95
2023/01/10 10:17:43;;;;;;;27.52;3.15;;;;;;;4.43;100.00;101671.75;4974609;28;20043;-94
2023/01/10 10:20:47;;;;;;;22.40;3.10;;;;;;;4.50;100.00;101671.78;4979798;28;20058;-95
2023/01/10 10:24:06;;;;;;;;;;;;;;;;;;;;;
2023/01/10 10:27:07;;;;;;;29.65;2.90;;;;;;;4.66;100.00;101652.88;5080244;28;20097;-96
2023/01/10 10:29:57;;;;;;;44.17;3.17;;;;;;;4.75;100.00;101652.72;5072191;28;20029;-93
2023/01/10 10:33:20;;;;;;;50.93;4.17;;;;;;;4.66;100.00;101634.28;5059060;28;20287;-95
2023/01/10 10:36:29;;;;;;;25.75;2.55;;;;;;;4.57;100.00;101603.59;5066885;28;20411;-94
2023/01/10 10:38:59;;;;;;;21.55;3.13;;;;;;;4.89;100.00;101630.50;5042973;28;20054;-95
2023/01/10 10:41:30;;;;;;;21.23;2.80;;;;;;;4.98;100.00;101647.06;5055383;28;20031;-92
2023/01/10 10:44:02;;;;;;;16.88;2.42;;;;;;;4.89;100.00;101617.22;5062295;28;20062;-92
2023/01/10 10:46:29;;;;;;;24.52;3.08;;;;;;;4.84;100.00;101604.50;5065230;28;20109;-92
2023/01/10 10:49:13;;;;;;;21.27;2.53;;;;;;;4.88;100.00;101591.66;5067230;28;20057;-91
2023/01/10 10:51:55;;;;;;;20.17;2.22;;;;;;;5.11;100.00;101625.03;5064997;28;20033;-91
2023/01/10 10:54:21;;;;;;;21.67;2.60;;;;;;;5.08;100.00;101598.88;5069007;28;20109;-90
2023/01/10 10:56:47;;;;;;;17.88;2.85;;;;;;;5.18;100.00;101615.22;5054106;28;20040;-92
2023/01/10 10:59:17;;;;;;;18.02;2.45;;;;;;;5.22;100.00;101618.28;5071210;28;20100;-91
2023/01/10 11:01:46;;;;;;;29.00;2.57;;;;;;;5.28;100.00;101622.78;5073844;28;20103;-91
2023/01/10 11:04:16;;;;;;;22.67;2.57;;;;;;;5.28;100.00;101610.34;5062312;28;20313;-91
2023/01/10 11:09:30;;;;;;;17.58;3.25;;;;;;;5.41;100.00;101614.81;5457615;22;20049;-90
2023/01/10 11:11:58;;;;;;;19.58;2.75;;;;;;;5.25;100.00;101567.38;5061167;28;20021;-90
2023/01/10 11:14:44;;;;;;;23.67;3.25;;;;;;;5.51;100.00;101598.47;5060137;28;20017;-90
2023/01/10 11:17:22;;;;;;;21.55;4.30;;;;;;;5.53;100.00;101590.31;5040244;28;20029;-91
2023/01/10 11:19:55;;;;;;;29.20;4.85;;;;;;;5.54;100.00;101582.13;5039027;28;20076;-91
2023/01/10 11:22:20;;;;;;;19.77;3.73;;;;;;;5.61;100.00;101587.44;5039467;28;20026;-91
2023/01/10 11:24:58;;;;;;;27.23;3.28;;;;;;;5.53;100.00;101583.13;5039318;28;20137;-91
2023/01/10 11:27:28;;;;;;;28.67;3.70;;;;;;;5.58;100.00;101593.97;5038857;28;20018;-91
2023/01/10 11:29:56;;;;;;;24.73;3.73;;;;;;;5.58;100.00;101583.34;5046492;28;20338;-91
2023/01/10 11:32:29;;;;;;;24.38;3.83;;;;;;;5.51;100.00;101568.44;5042929;28;20057;-92
2023/01/10 11:35:01;;;;;;;26.95;3.85;;;;;;;5.66;100.00;101589.50;5044378;28;20026;-92
2023/01/10 11:37:31;;;;;;;35.60;3.25;;;;;;;5.71;100.00;101595.00;5037940;28;20026;-92
2023/01/10 11:40:15;;;;;;;25.00;3.20;;;;;;;5.76;100.00;101587.22;5041467;28;20029;-92
2023/01/10 11:42:41;;;;;;;27.30;4.43;;;;;;;5.76;100.00;101587.22;5040610;28;20083;-93
2023/01/10 11:45:18;;;;;;;16.83;3.10;;;;;;;5.72;100.00;101583.31;5040685;28;20025;-91
2023/01/10 11:47:49;;;;;;;21.80;3.22;;;;;;;5.71;100.00;101574.53;5032745;28;20380;-90
2023/01/10 11:50:30;;;;;;;26.90;3.42;;;;;;;5.73;100.00;101571.66;5023220;28;20024;-91
2023/01/10 11:52:57;;;;;;;17.88;2.50;;;;;;;5.58;100.00;101545.28;5035915;28;20057;-90
2023/01/10 11:55:26;;;;;;;17.48;2.80;;;;;;;5.65;100.00;101558.59;5037205;28;20109;-91
2023/01/10 11:58:13;;;;;;;21.87;3.47;;;;;;;5.70;100.00;101566.75;5039031;28;20052;-91
2023/01/10 12:00:47;;;;;;;22.27;3.27;;;;;;;5.72;100.00;101567.38;5021090;28;20410;-92
2023/01/10 12:03:31;;;;;;;22.23;2.88;;;;;;;5.79;100.00;101568.19;5038084;28;20073;-91
2023/01/10 12:06:15;;;;;;;26.33;3.10;;;;;;;5.81;100.00;101563.47;5051227;28;20108;-92
2023/01/10 12:08:41;;;;;;;19.95;2.53;;;;;;;5.82;100.00;101558.97;5030944;28;20026;-91
2023/01/10 12:11:26;;;;;;;17.05;2.00;;;;;;;5.89;100.00;101554.47;5013039;28;20087;-91
2023/01/10 12:13:56;;;;;;;17.83;3.03;;;;;;;5.85;100.00;101547.91;4994884;28;20030;-91
2023/01/10 12:16:25;;;;;;;20.20;2.38;;;;;;;5.85;100.00;101538.06;5029423;28;20573;-91
2023/01/10 12:18:54;;;;;;;23.83;2.58;;;;;;;5.78;100.00;101531.97;5034235;28;20026;-91
2023/01/10 12:21:29;;;;;;;20.27;2.63;;;;;;;5.80;100.00;101523.78;5033335;28;20116;-91
2023/01/10 12:23:59;;;;;;;19.73;2.58;;;;;;;5.88;100.00;101532.34;5036324;28;20029;-91
2023/01/10 12:26:29;;;;;;;22.27;3.15;;;;;;;5.90;100.00;101527.63;5035427;28;20022;-91
2023/01/10 12:28:58;;;;;;;20.40;3.43;;;;;;;5.86;100.00;101514.97;5035081;28;20033;-91
2023/01/10 12:31:24;;;;;;;22.23;2.83;;;;;;;5.85;100.00;101514.13;5018600;28;20021;-91
2023/01/10 12:33:57;;;;;;;23.52;3.92;;;;;;;5.87;100.00;101505.97;5038588;28;20036;-91